sensor_id;sensor_type;location;lat;lon;timestamp;pressure;altitude;pressure_sealevel;temperature
39959;BMP280;25639;53.634;9.880;2022-07-29T00:00:42;155511.47;;;12.70
39959;BMP280;25639;53.634;9.880;2022-07-29T00:03:10;155506.34;;;12.68
39959;BMP280;25639;53.634;9.880;2022-07-29T00:05:35;155508.88;;;12.69
39959;BMP280;25639;53.634;9.880;2022-07-29T00:08:01;155498.69;;;12.65
39959;BMP280;25639;53.634;9.880;2022-07-29T00:10:26;155483.34;;;12.59
39959;BMP280;25639;53.634;9.880;2022-07-29T00:12:51;155437.38;;;12.40
39959;BMP280;25639;53.634;9.880;2022-07-29T00:15:17;155434.84;;;12.39
39959;BMP280;25639;53.634;9.880;2022-07-29T00:17:42;155416.97;;;12.32
39959;BMP280;25639;53.634;9.880;2022-07-29T00:20:09;155424.59;;;12.35
39959;BMP280;25639;53.634;9.880;2022-07-29T00:22:37;155408.03;;;12.29
39959;BMP280;25639;53.634;9.880;2022-07-29T00:25:03;155404.22;;;12.27
39959;BMP280;25639;53.634;9.880;2022-07-29T00:27:28;155402.91;;;12.27
39959;BMP280;25639;53.634;9.880;2022-07-29T00:29:53;155378.66;;;12.17
39959;BMP280;25639;53.634;9.880;2022-07-29T00:32:19;155363.34;;;12.11
39959;BMP280;25639;53.634;9.880;2022-07-29T00:34:44;155353.13;;;12.07
39959;BMP280;25639;53.634;9.880;2022-07-29T00:37:28;155336.50;;;12.00
39959;BMP280;25639;53.634;9.880;2022-07-29T00:39:53;155325.06;;;11.95
39959;BMP280;25639;53.634;9.880;2022-07-29T00:42:19;155316.13;;;11.92
39959;BMP280;25639;53.634;9.880;2022-07-29T00:44:44;155310.97;;;11.90
39959;BMP280;25639;53.634;9.880;2022-07-29T00:47:11;155304.56;;;11.87
39959;BMP280;25639;53.634;9.880;2022-07-29T00:49:38;155309.66;;;11.89
39959;BMP280;25639;53.634;9.880;2022-07-29T00:52:05;155300.72;;;11.86
39959;BMP280;25639;53.634;9.880;2022-07-29T00:54:30;155302.03;;;11.86
39959;BMP280;25639;53.634;9.880;2022-07-29T00:56:58;155291.78;;;11.82
39959;BMP280;25639;53.634;9.880;2022-07-29T00:59:23;155276.50;;;11.76
39959;BMP280;25639;53.634;9.880;2022-07-29T01:01:49;155281.59;;;11.78
39959;BMP280;25639;53.634;9.880;2022-07-29T01:04:14;155276.50;;;11.76
39959;BMP280;25639;53.634;9.880;2022-07-29T01:06:40;155271.41;;;11.74
39959;BMP280;25639;53.634;9.880;2022-07-29T01:09:06;155261.19;;;11.70
39959;BMP280;25639;53.634;9.880;2022-07-29T01:11:33;155253.53;;;11.67
39959;BMP280;25639;53.634;9.880;2022-07-29T01:13:59;155262.47;;;11.70
39959;BMP280;25639;53.634;9.880;2022-07-29T01:16:32;155248.44;;;11.64
39959;BMP280;25639;53.634;9.880;2022-07-29T01:19:08;155244.59;;;11.63
39959;BMP280;25639;53.634;9.880;2022-07-29T01:21:51;155235.66;;;11.59
39959;BMP280;25639;53.634;9.880;2022-07-29T01:24:37;155244.59;;;11.63
39959;BMP280;25639;53.634;9.880;2022-07-29T01:27:44;155245.84;;;11.63
39959;BMP280;25639;53.634;9.880;2022-07-29T01:30:01;155220.31;;;11.53
39959;BMP280;25639;53.634;9.880;2022-07-29T01:32:29;155231.81;;;11.58
39959;BMP280;25639;53.634;9.880;2022-07-29T01:35:06;155205.03;;;11.47
39959;BMP280;25639;53.634;9.880;2022-07-29T01:37:39;155205.03;;;11.47
39959;BMP280;25639;53.634;9.880;2022-07-29T01:40:24;155221.63;;;11.54
39959;BMP280;25639;53.634;9.880;2022-07-29T01:42:54;155231.81;;;11.58
39959;BMP280;25639;53.634;9.880;2022-07-29T01:45:40;155234.41;;;11.59
39959;BMP280;25639;53.634;9.880;2022-07-29T01:50:47;155220.31;;;11.53
39959;BMP280;25639;53.634;9.880;2022-07-29T01:53:16;155220.31;;;11.53
39959;BMP280;25639;53.634;9.880;2022-07-29T01:55:44;155205.03;;;11.47
39959;BMP280;25639;53.634;9.880;2022-07-29T01:58:11;155220.31;;;11.53
39959;BMP280;25639;53.634;9.880;2022-07-29T02:00:39;155220.31;;;11.53
39959;BMP280;25639;53.634;9.880;2022-07-29T02:03:09;155220.31;;;11.53
39959;BMP280;25639;53.634;9.880;2022-07-29T02:05:35;155233.09;;;11.58
39959;BMP280;25639;53.634;9.880;2022-07-29T02:08:04;155244.59;;;11.63
39959;BMP280;25639;53.634;9.880;2022-07-29T02:10:33;155238.19;;;11.60
39959;BMP280;25639;53.634;9.880;2022-07-29T02:12:59;155252.25;;;11.66
39959;BMP280;25639;53.634;9.880;2022-07-29T02:15:29;155258.63;;;11.69
39959;BMP280;25639;53.634;9.880;2022-07-29T02:17:58;155249.69;;;11.65
39959;BMP280;25639;53.634;9.880;2022-07-29T02:20:25;155276.50;;;11.76
39959;BMP280;25639;53.634;9.880;2022-07-29T02:22:52;155286.69;;;11.80
39959;BMP280;25639;53.634;9.880;2022-07-29T02:25:21;155280.34;;;11.77
39959;BMP280;25639;53.634;9.880;2022-07-29T02:27:49;155289.25;;;11.81
39959;BMP280;25639;53.634;9.880;2022-07-29T02:30:15;155291.78;;;11.82
39959;BMP280;25639;53.634;9.880;2022-07-29T02:32:43;155293.09;;;11.82
39959;BMP280;25639;53.634;9.880;2022-07-29T02:35:09;155313.53;;;11.91
39959;BMP280;25639;53.634;9.880;2022-07-29T02:37:37;155313.53;;;11.91
39959;BMP280;25639;53.634;9.880;2022-07-29T02:40:05;155314.84;;;11.91
39959;BMP280;25639;53.634;9.880;2022-07-29T02:42:33;155309.66;;;11.89
39959;BMP280;25639;53.634;9.880;2022-07-29T02:45:00;155318.63;;;11.93
39959;BMP280;25639;53.634;9.880;2022-07-29T02:47:47;155322.47;;;11.94
39959;BMP280;25639;53.634;9.880;2022-07-29T02:50:21;155327.56;;;11.96
39959;BMP280;25639;53.634;9.880;2022-07-29T02:52:59;155319.94;;;11.93
39959;BMP280;25639;53.634;9.880;2022-07-29T02:55:30;155314.84;;;11.91
39959;BMP280;25639;53.634;9.880;2022-07-29T02:58:24;155328.88;;;11.97
39959;BMP280;25639;53.634;9.880;2022-07-29T03:00:49;155353.13;;;12.07
39959;BMP280;25639;53.634;9.880;2022-07-29T03:03:18;155342.91;;;12.02
39959;BMP280;25639;53.634;9.880;2022-07-29T03:05:44;155340.34;;;12.01
39959;BMP280;25639;53.634;9.880;2022-07-29T03:08:11;155360.78;;;12.10
39959;BMP280;25639;53.634;9.880;2022-07-29T03:10:39;155356.94;;;12.08
39959;BMP280;25639;53.634;9.880;2022-07-29T03:13:08;155342.91;;;12.02
39959;BMP280;25639;53.634;9.880;2022-07-29T03:15:34;155340.34;;;12.01
39959;BMP280;25639;53.634;9.880;2022-07-29T03:18:00;155356.94;;;12.08
39959;BMP280;25639;53.634;9.880;2022-07-29T03:20:26;155363.34;;;12.11
39959;BMP280;25639;53.634;9.880;2022-07-29T03:22:52;155350.59;;;12.06
39959;BMP280;25639;53.634;9.880;2022-07-29T03:25:18;155358.22;;;12.09
39959;BMP280;25639;53.634;9.880;2022-07-29T03:27:45;155373.56;;;12.15
39959;BMP280;25639;53.634;9.880;2022-07-29T03:30:12;155364.63;;;12.11
39959;BMP280;25639;53.634;9.880;2022-07-29T03:32:38;155363.34;;;12.11
39959;BMP280;25639;53.634;9.880;2022-07-29T03:35:05;155351.84;;;12.06
39959;BMP280;25639;53.634;9.880;2022-07-29T03:37:31;155368.47;;;12.13
39959;BMP280;25639;53.634;9.880;2022-07-29T03:39:58;155373.56;;;12.15
39959;BMP280;25639;53.634;9.880;2022-07-29T03:42:32;155358.22;;;12.09
39959;BMP280;25639;53.634;9.880;2022-07-29T03:45:05;155363.34;;;12.11
39959;BMP280;25639;53.634;9.880;2022-07-29T03:47:31;155359.53;;;12.09
39959;BMP280;25639;53.634;9.880;2022-07-29T03:50:00;155351.84;;;12.06
39959;BMP280;25639;53.634;9.880;2022-07-29T03:52:27;155363.34;;;12.11
39959;BMP280;25639;53.634;9.880;2022-07-29T03:54:53;155367.16;;;12.12
39959;BMP280;25639;53.634;9.880;2022-07-29T03:57:20;155378.66;;;12.17
39959;BMP280;25639;53.634;9.880;2022-07-29T03:59:49;155356.94;;;12.08
39959;BMP280;25639;53.634;9.880;2022-07-29T04:02:16;155378.66;;;12.17
39959;BMP280;25639;53.634;9.880;2022-07-29T04:04:41;155386.34;;;12.20
39959;BMP280;25639;53.634;9.880;2022-07-29T04:07:06;155378.66;;;12.17
39959;BMP280;25639;53.634;9.880;2022-07-29T04:09:32;155388.88;;;12.21
39959;BMP280;25639;53.634;9.880;2022-07-29T04:11:57;155404.22;;;12.27
39959;BMP280;25639;53.634;9.880;2022-07-29T04:14:22;155420.78;;;12.34
39959;BMP280;25639;53.634;9.880;2022-07-29T04:16:48;155411.84;;;12.30
39959;BMP280;25639;53.634;9.880;2022-07-29T04:19:13;155411.84;;;12.30
39959;BMP280;25639;53.634;9.880;2022-07-29T04:21:39;155450.16;;;12.46
39959;BMP280;25639;53.634;9.880;2022-07-29T04:24:05;155461.66;;;12.50
39959;BMP280;25639;53.634;9.880;2022-07-29T04:26:31;155462.94;;;12.51
39959;BMP280;25639;53.634;9.880;2022-07-29T04:28:56;155491.00;;;12.62
39959;BMP280;25639;53.634;9.880;2022-07-29T04:31:21;155485.91;;;12.60
39959;BMP280;25639;53.634;9.880;2022-07-29T04:33:46;155470.59;;;12.54
39959;BMP280;25639;53.634;9.880;2022-07-29T04:36:12;155498.69;;;12.65
39959;BMP280;25639;53.634;9.880;2022-07-29T04:38:38;155484.66;;;12.59
39959;BMP280;25639;53.634;9.880;2022-07-29T04:41:03;155521.66;;;12.74
39959;BMP280;25639;53.634;9.880;2022-07-29T04:43:28;155514.00;;;12.71
39959;BMP280;25639;53.634;9.880;2022-07-29T04:45:54;155529.34;;;12.77
39959;BMP280;25639;53.634;9.880;2022-07-29T04:48:19;155549.75;;;12.86
39959;BMP280;25639;53.634;9.880;2022-07-29T04:50:45;155553.59;;;12.87
39959;BMP280;25639;53.634;9.880;2022-07-29T04:53:10;155581.72;;;12.99
39959;BMP280;25639;53.634;9.880;2022-07-29T04:55:35;155582.97;;;12.99
39959;BMP280;25639;53.634;9.880;2022-07-29T04:58:01;155585.50;;;13.00
39959;BMP280;25639;53.634;9.880;2022-07-29T05:00:27;155599.59;;;13.06
39959;BMP280;25639;53.634;9.880;2022-07-29T05:02:52;155671.19;;;13.34
39959;BMP280;25639;53.634;9.880;2022-07-29T05:05:18;155705.63;;;13.48
39959;BMP280;25639;53.634;9.880;2022-07-29T05:07:43;155698.00;;;13.45
39959;BMP280;25639;53.634;9.880;2022-07-29T05:10:08;155706.97;;;13.49
39959;BMP280;25639;53.634;9.880;2022-07-29T05:12:34;155662.25;;;13.31
39959;BMP280;25639;53.634;9.880;2022-07-29T05:14:59;155650.66;;;13.26
39959;BMP280;25639;53.634;9.880;2022-07-29T05:17:24;155677.56;;;13.37
39959;BMP280;25639;53.634;9.880;2022-07-29T05:19:50;155692.91;;;13.43
39959;BMP280;25639;53.634;9.880;2022-07-29T05:22:19;155653.25;;;13.27
39959;BMP280;25639;53.634;9.880;2022-07-29T05:24:44;155705.63;;;13.48
39959;BMP280;25639;53.634;9.880;2022-07-29T05:27:10;155733.78;;;13.60
39959;BMP280;25639;53.634;9.880;2022-07-29T05:29:35;155731.22;;;13.59
39959;BMP280;25639;53.634;9.880;2022-07-29T05:32:00;155731.22;;;13.59
39959;BMP280;25639;53.634;9.880;2022-07-29T05:34:26;155751.69;;;13.67
39959;BMP280;25639;53.634;9.880;2022-07-29T05:36:51;155788.72;;;13.82
39959;BMP280;25639;53.634;9.880;2022-07-29T05:39:17;155804.06;;;13.88
39959;BMP280;25639;53.634;9.880;2022-07-29T05:41:42;155805.34;;;13.88
39959;BMP280;25639;53.634;9.880;2022-07-29T05:44:07;155852.59;;;14.07
39959;BMP280;25639;53.634;9.880;2022-07-29T05:46:32;155866.72;;;14.13
39959;BMP280;25639;53.634;9.880;2022-07-29T05:48:58;155857.75;;;14.09
39959;BMP280;25639;53.634;9.880;2022-07-29T05:51:23;155841.13;;;14.03
39959;BMP280;25639;53.634;9.880;2022-07-29T05:53:48;155866.72;;;14.13
39959;BMP280;25639;53.634;9.880;2022-07-29T05:56:14;155867.97;;;14.14
39959;BMP280;25639;53.634;9.880;2022-07-29T05:58:39;155855.19;;;14.08
39959;BMP280;25639;53.634;9.880;2022-07-29T06:01:04;155930.59;;;14.39
39959;BMP280;25639;53.634;9.880;2022-07-29T06:03:30;155942.13;;;14.43
39959;BMP280;25639;53.634;9.880;2022-07-29T06:05:55;155945.91;;;14.45
39959;BMP280;25639;53.634;9.880;2022-07-29T06:08:20;156026.56;;;14.77
39959;BMP280;25639;53.634;9.880;2022-07-29T06:10:46;156040.63;;;14.83
39959;BMP280;25639;53.634;9.880;2022-07-29T06:13:12;156036.78;;;14.81
39959;BMP280;25639;53.634;9.880;2022-07-29T06:15:37;156055.94;;;14.89
39959;BMP280;25639;53.634;9.880;2022-07-29T06:18:03;156085.38;;;15.01
39959;BMP280;25639;53.634;9.880;2022-07-29T06:20:29;156150.56;;;15.27
39959;BMP280;25639;53.634;9.880;2022-07-29T06:22:55;156149.31;;;15.27
39959;BMP280;25639;53.634;9.880;2022-07-29T06:25:20;156203.03;;;15.48
39959;BMP280;25639;53.634;9.880;2022-07-29T06:27:46;156341.25;;;16.04
39959;BMP280;25639;53.634;9.880;2022-07-29T06:30:11;156429.56;;;16.39
39959;BMP280;25639;53.634;9.880;2022-07-29T06:32:37;156446.22;;;16.46
39959;BMP280;25639;53.634;9.880;2022-07-29T06:35:02;156343.84;;;16.05
39959;BMP280;25639;53.634;9.880;2022-07-29T06:37:28;156420.63;;;16.35
39959;BMP280;25639;53.634;9.880;2022-07-29T06:39:53;156388.63;;;16.23
39959;BMP280;25639;53.634;9.880;2022-07-29T06:42:45;156414.25;;;16.33
39959;BMP280;25639;53.634;9.880;2022-07-29T06:45:11;156476.97;;;16.58
39959;BMP280;25639;53.634;9.880;2022-07-29T06:47:36;156428.31;;;16.38
39959;BMP280;25639;53.634;9.880;2022-07-29T06:50:02;156414.25;;;16.33
39959;BMP280;25639;53.634;9.880;2022-07-29T06:52:28;156470.53;;;16.55
39959;BMP280;25639;53.634;9.880;2022-07-29T06:54:53;156494.88;;;16.65
39959;BMP280;25639;53.634;9.880;2022-07-29T06:57:20;156516.59;;;16.74
39959;BMP280;25639;53.634;9.880;2022-07-29T06:59:45;156485.91;;;16.62
39959;BMP280;25639;53.634;9.880;2022-07-29T07:02:11;156515.34;;;16.73
39959;BMP280;25639;53.634;9.880;2022-07-29T07:04:36;156476.97;;;16.58
39959;BMP280;25639;53.634;9.880;2022-07-29T07:07:01;156565.31;;;16.93
39959;BMP280;25639;53.634;9.880;2022-07-29T07:09:26;156717.75;;;17.55
39959;BMP280;25639;53.634;9.880;2022-07-29T07:11:52;156833.03;;;18.01
39959;BMP280;25639;53.634;9.880;2022-07-29T07:14:17;156920.19;;;18.36
39959;BMP280;25639;53.634;9.880;2022-07-29T07:16:42;157084.28;;;19.01
39959;BMP280;25639;53.634;9.880;2022-07-29T07:19:07;157302.28;;;19.89
39959;BMP280;25639;53.634;9.880;2022-07-29T07:21:33;157429.28;;;20.40
39959;BMP280;25639;53.634;9.880;2022-07-29T07:23:59;157353.59;;;20.09
39959;BMP280;25639;53.634;9.880;2022-07-29T07:26:25;157229.16;;;19.59
39959;BMP280;25639;53.634;9.880;2022-07-29T07:28:50;157184.28;;;19.41
39959;BMP280;25639;53.634;9.880;2022-07-29T07:31:16;157372.84;;;20.17
39959;BMP280;25639;53.634;9.880;2022-07-29T07:33:41;157322.81;;;19.97
39959;BMP280;25639;53.634;9.880;2022-07-29T07:36:06;157375.41;;;20.18
39959;BMP280;25639;53.634;9.880;2022-07-29T07:38:32;157367.72;;;20.15
39959;BMP280;25639;53.634;9.880;2022-07-29T07:40:57;157476.78;;;20.59
39959;BMP280;25639;53.634;9.880;2022-07-29T07:43:22;157498.59;;;20.67
39959;BMP280;25639;53.634;9.880;2022-07-29T07:45:48;157512.75;;;20.73
39959;BMP280;25639;53.634;9.880;2022-07-29T07:48:13;157503.78;;;20.69
39959;BMP280;25639;53.634;9.880;2022-07-29T07:50:38;157502.44;;;20.69
39959;BMP280;25639;53.634;9.880;2022-07-29T07:53:04;157566.66;;;20.94
39959;BMP280;25639;53.634;9.880;2022-07-29T07:55:29;157603.84;;;21.09
39959;BMP280;25639;53.634;9.880;2022-07-29T07:57:54;157578.16;;;20.99
39959;BMP280;25639;53.634;9.880;2022-07-29T08:00:21;157575.63;;;20.98
39959;BMP280;25639;53.634;9.880;2022-07-29T08:02:46;157629.53;;;21.20
39959;BMP280;25639;53.634;9.880;2022-07-29T08:05:12;157580.75;;;21.00
39959;BMP280;25639;53.634;9.880;2022-07-29T08:07:42;157683.44;;;21.41
39959;BMP280;25639;53.634;9.880;2022-07-29T08:10:07;157763.06;;;21.73
39959;BMP280;25639;53.634;9.880;2022-07-29T08:12:33;157653.88;;;21.29
39959;BMP280;25639;53.634;9.880;2022-07-29T08:14:58;157678.31;;;21.39
39959;BMP280;25639;53.634;9.880;2022-07-29T08:17:23;157719.41;;;21.56
39959;BMP280;25639;53.634;9.880;2022-07-29T08:19:49;157765.63;;;21.74
39959;BMP280;25639;53.634;9.880;2022-07-29T08:22:14;157788.72;;;21.83
39959;BMP280;25639;53.634;9.880;2022-07-29T08:24:40;157754.09;;;21.69
39959;BMP280;25639;53.634;9.880;2022-07-29T08:27:10;157710.44;;;21.52
39959;BMP280;25639;53.634;9.880;2022-07-29T08:29:36;157755.38;;;21.70
39959;BMP280;25639;53.634;9.880;2022-07-29T08:32:02;157678.31;;;21.39
39959;BMP280;25639;53.634;9.880;2022-07-29T08:34:27;157814.41;;;21.94
39959;BMP280;25639;53.634;9.880;2022-07-29T08:36:54;157897.94;;;22.27
39959;BMP280;25639;53.634;9.880;2022-07-29T08:39:19;157976.25;;;22.58
39959;BMP280;25639;53.634;9.880;2022-07-29T08:41:45;158016.06;;;22.74
39959;BMP280;25639;53.634;9.880;2022-07-29T08:44:10;158009.69;;;22.72
39959;BMP280;25639;53.634;9.880;2022-07-29T08:46:38;158151.00;;;23.28
39959;BMP280;25639;53.634;9.880;2022-07-29T08:49:04;158266.66;;;23.74
39959;BMP280;25639;53.634;9.880;2022-07-29T08:51:30;158230.69;;;23.60
39959;BMP280;25639;53.634;9.880;2022-07-29T08:53:57;158419.66;;;24.35
39959;BMP280;25639;53.634;9.880;2022-07-29T08:56:22;158490.44;;;24.64
39959;BMP280;25639;53.634;9.880;2022-07-29T08:58:48;158256.41;;;23.70
39959;BMP280;25639;53.634;9.880;2022-07-29T09:01:17;158318.16;;;23.95
39959;BMP280;25639;53.634;9.880;2022-07-29T09:03:44;158385.00;;;24.22
39959;BMP280;25639;53.634;9.880;2022-07-29T09:06:13;158670.50;;;25.36
39959;BMP280;25639;53.634;9.880;2022-07-29T09:08:39;158715.53;;;25.54
39959;BMP280;25639;53.634;9.880;2022-07-29T09:11:05;158436.38;;;24.42
39959;BMP280;25639;53.634;9.880;2022-07-29T09:13:32;158441.53;;;24.44
39959;BMP280;25639;53.634;9.880;2022-07-29T09:15:57;158742.53;;;25.64
39959;BMP280;25639;53.634;9.880;2022-07-29T09:21:04;158819.81;;;25.95
39959;BMP280;25639;53.634;9.880;2022-07-29T09:24:07;158714.25;;;25.53
39959;BMP280;25639;53.634;9.880;2022-07-29T09:26:33;158487.84;;;24.63
39959;BMP280;25639;53.634;9.880;2022-07-29T09:28:59;158651.22;;;25.28
39959;BMP280;25639;53.634;9.880;2022-07-29T09:31:36;158619.03;;;25.15
39959;BMP280;25639;53.634;9.880;2022-07-29T09:34:04;158557.31;;;24.90
39959;BMP280;25639;53.634;9.880;2022-07-29T09:36:29;158426.13;;;24.38
39959;BMP280;25639;53.634;9.880;2022-07-29T09:38:59;158365.69;;;24.14
39959;BMP280;25639;53.634;9.880;2022-07-29T09:41:26;158337.41;;;24.03
39959;BMP280;25639;53.634;9.880;2022-07-29T09:43:55;158189.56;;;23.44
39959;BMP280;25639;53.634;9.880;2022-07-29T09:46:21;158211.41;;;23.52
39959;BMP280;25639;53.634;9.880;2022-07-29T09:49:05;158419.66;;;24.35
39959;BMP280;25639;53.634;9.880;2022-07-29T09:51:31;158517.44;;;24.74
39959;BMP280;25639;53.634;9.880;2022-07-29T09:53:56;158449.25;;;24.47
39959;BMP280;25639;53.634;9.880;2022-07-29T09:56:41;158417.13;;;24.34
39959;BMP280;25639;53.634;9.880;2022-07-29T09:59:07;158163.84;;;23.33
39959;BMP280;25639;53.634;9.880;2022-07-29T10:01:33;158106.03;;;23.10
39959;BMP280;25639;53.634;9.880;2022-07-29T10:03:59;158210.09;;;23.52
39959;BMP280;25639;53.634;9.880;2022-07-29T10:06:25;158289.84;;;23.84
39959;BMP280;25639;53.634;9.880;2022-07-29T10:08:51;158327.16;;;23.98
39959;BMP280;25639;53.634;9.880;2022-07-29T10:11:18;158302.69;;;23.89
39959;BMP280;25639;53.634;9.880;2022-07-29T10:13:47;158302.69;;;23.89
39959;BMP280;25639;53.634;9.880;2022-07-29T10:16:14;158301.44;;;23.88
39959;BMP280;25639;53.634;9.880;2022-07-29T10:18:41;158174.13;;;23.37
39959;BMP280;25639;53.634;9.880;2022-07-29T10:21:08;158045.63;;;22.86
39959;BMP280;25639;53.634;9.880;2022-07-29T10:23:35;158186.97;;;23.42
39959;BMP280;25639;53.634;9.880;2022-07-29T10:26:02;158121.50;;;23.16
39959;BMP280;25639;53.634;9.880;2022-07-29T10:28:30;158139.47;;;23.24
39959;BMP280;25639;53.634;9.880;2022-07-29T10:31:01;158106.03;;;23.10
39959;BMP280;25639;53.634;9.880;2022-07-29T10:33:43;158100.91;;;23.08
39959;BMP280;25639;53.634;9.880;2022-07-29T10:39:38;158193.44;;;23.45
39959;BMP280;25639;53.634;9.880;2022-07-29T10:42:11;158217.81;;;23.55
39959;BMP280;25639;53.634;9.880;2022-07-29T10:44:40;158238.41;;;23.63
39959;BMP280;25639;53.634;9.880;2022-07-29T10:47:07;158135.63;;;23.22
39959;BMP280;25639;53.634;9.880;2022-07-29T10:49:32;158162.59;;;23.33
39959;BMP280;25639;53.634;9.880;2022-07-29T10:52:08;158201.13;;;23.48
39959;BMP280;25639;53.634;9.880;2022-07-29T10:54:41;158294.97;;;23.86
39959;BMP280;25639;53.634;9.880;2022-07-29T10:57:14;158251.25;;;23.68
39959;BMP280;25639;53.634;9.880;2022-07-29T11:05:19;158206.28;;;23.50
39959;BMP280;25639;53.634;9.880;2022-07-29T11:10:37;158274.38;;;23.77
39959;BMP280;25639;53.634;9.880;2022-07-29T11:13:02;158247.41;;;23.67
39959;BMP280;25639;53.634;9.880;2022-07-29T11:15:27;158341.28;;;24.04
39959;BMP280;25639;53.634;9.880;2022-07-29T11:20:40;158275.66;;;23.78
39959;BMP280;25639;53.634;9.880;2022-07-29T11:23:24;158415.81;;;24.34
39959;BMP280;25639;53.634;9.880;2022-07-29T11:31:17;158652.50;;;25.28
39959;BMP280;25639;53.634;9.880;2022-07-29T11:33:44;158691.09;;;25.44
39959;BMP280;25639;53.634;9.880;2022-07-29T11:36:14;158733.53;;;25.61
39959;BMP280;25639;53.634;9.880;2022-07-29T11:38:41;158657.63;;;25.30
39959;BMP280;25639;53.634;9.880;2022-07-29T11:41:26;158841.63;;;26.04
39959;BMP280;25639;53.634;9.880;2022-07-29T11:43:55;158723.25;;;25.57
39959;BMP280;25639;53.634;9.880;2022-07-29T11:49:21;158712.97;;;25.53
39959;BMP280;25639;53.634;9.880;2022-07-29T11:51:52;158682.09;;;25.40
39959;BMP280;25639;53.634;9.880;2022-07-29T11:54:24;158625.44;;;25.18
39959;BMP280;25639;53.634;9.880;2022-07-29T11:56:51;158683.38;;;25.41
39959;BMP280;25639;53.634;9.880;2022-07-29T11:59:17;158709.09;;;25.51
39959;BMP280;25639;53.634;9.880;2022-07-29T12:01:58;158750.25;;;25.67
39959;BMP280;25639;53.634;9.880;2022-07-29T12:04:24;158705.25;;;25.49
39959;BMP280;25639;53.634;9.880;2022-07-29T12:06:50;158580.44;;;25.00
39959;BMP280;25639;53.634;9.880;2022-07-29T12:09:18;158629.31;;;25.19
39959;BMP280;25639;53.634;9.880;2022-07-29T12:11:45;158710.38;;;25.52
39959;BMP280;25639;53.634;9.880;2022-07-29T12:14:31;158738.66;;;25.63
39959;BMP280;25639;53.634;9.880;2022-07-29T12:16:57;158984.53;;;26.61
39959;BMP280;25639;53.634;9.880;2022-07-29T12:19:23;158963.91;;;26.53
39959;BMP280;25639;53.634;9.880;2022-07-29T12:21:51;158987.13;;;26.62
39959;BMP280;25639;53.634;9.880;2022-07-29T12:24:17;159077.22;;;26.98
39959;BMP280;25639;53.634;9.880;2022-07-29T12:26:57;159222.72;;;27.56
39959;BMP280;25639;53.634;9.880;2022-07-29T12:29:23;159256.22;;;27.69
39959;BMP280;25639;53.634;9.880;2022-07-29T12:31:53;159207.28;;;27.50
39959;BMP280;25639;53.634;9.880;2022-07-29T12:34:26;159217.56;;;27.54
39959;BMP280;25639;53.634;9.880;2022-07-29T12:36:53;158994.84;;;26.65
39959;BMP280;25639;53.634;9.880;2022-07-29T12:39:19;158882.84;;;26.20
39959;BMP280;25639;53.634;9.880;2022-07-29T12:41:44;159066.94;;;26.94
39959;BMP280;25639;53.634;9.880;2022-07-29T12:44:10;158944.56;;;26.45
39959;BMP280;25639;53.634;9.880;2022-07-29T12:46:36;159015.41;;;26.73
39959;BMP280;25639;53.634;9.880;2022-07-29T12:49:02;158886.66;;;26.22
39959;BMP280;25639;53.634;9.880;2022-07-29T12:51:38;158897.00;;;26.26
39959;BMP280;25639;53.634;9.880;2022-07-29T12:54:05;158940.75;;;26.43
39959;BMP280;25639;53.634;9.880;2022-07-29T12:56:31;159145.44;;;27.25
39959;BMP280;25639;53.634;9.880;2022-07-29T12:58:56;159185.38;;;27.41
39959;BMP280;25639;53.634;9.880;2022-07-29T13:01:22;159203.41;;;27.48
39959;BMP280;25639;53.634;9.880;2022-07-29T13:03:51;159226.59;;;27.57
39959;BMP280;25639;53.634;9.880;2022-07-29T13:06:44;159408.22;;;28.30
39959;BMP280;25639;53.634;9.880;2022-07-29T13:09:20;159386.34;;;28.21
39959;BMP280;25639;53.634;9.880;2022-07-29T13:11:52;159350.28;;;28.07
39959;BMP280;25639;53.634;9.880;2022-07-29T13:14:34;159330.97;;;27.99
39959;BMP280;25639;53.634;9.880;2022-07-29T13:17:11;159301.28;;;27.87
39959;BMP280;25639;53.634;9.880;2022-07-29T13:19:45;159131.28;;;27.19
39959;BMP280;25639;53.634;9.880;2022-07-29T13:22:13;159189.25;;;27.43
39959;BMP280;25639;53.634;9.880;2022-07-29T13:27:19;159111.97;;;27.12
39959;BMP280;25639;53.634;9.880;2022-07-29T13:29:45;159171.25;;;27.35
39959;BMP280;25639;53.634;9.880;2022-07-29T13:32:11;159287.13;;;27.82
39959;BMP280;25639;53.634;9.880;2022-07-29T13:34:36;159391.47;;;28.23
39959;BMP280;25639;53.634;9.880;2022-07-29T13:37:02;159321.97;;;27.95
39959;BMP280;25639;53.634;9.880;2022-07-29T13:39:27;159224.03;;;27.56
39959;BMP280;25639;53.634;9.880;2022-07-29T13:41:52;159197.00;;;27.46
39959;BMP280;25639;53.634;9.880;2022-07-29T13:44:18;159337.38;;;28.02
39959;BMP280;25639;53.634;9.880;2022-07-29T13:46:43;159158.34;;;27.30
39959;BMP280;25639;53.634;9.880;2022-07-29T13:49:08;158956.19;;;26.50
39959;BMP280;25639;53.634;9.880;2022-07-29T13:51:34;158889.25;;;26.23
39959;BMP280;25639;53.634;9.880;2022-07-29T13:53:59;158871.25;;;26.16
39959;BMP280;25639;53.634;9.880;2022-07-29T13:56:24;158945.91;;;26.46
39959;BMP280;25639;53.634;9.880;2022-07-29T13:58:49;158703.97;;;25.49
39959;BMP280;25639;53.634;9.880;2022-07-29T14:01:15;158652.50;;;25.28
39959;BMP280;25639;53.634;9.880;2022-07-29T14:03:40;158579.16;;;24.99
39959;BMP280;25639;53.634;9.880;2022-07-29T14:06:08;158566.28;;;24.94
39959;BMP280;25639;53.634;9.880;2022-07-29T14:08:33;158626.72;;;25.18
39959;BMP280;25639;53.634;9.880;2022-07-29T14:10:59;158588.16;;;25.03
39959;BMP280;25639;53.634;9.880;2022-07-29T14:13:24;158612.56;;;25.12
39959;BMP280;25639;53.634;9.880;2022-07-29T14:15:49;158642.22;;;25.24
39959;BMP280;25639;53.634;9.880;2022-07-29T14:18:15;158628.03;;;25.19
39959;BMP280;25639;53.634;9.880;2022-07-29T14:20:40;158563.72;;;24.93
39959;BMP280;25639;53.634;9.880;2022-07-29T14:23:05;158446.66;;;24.46
39959;BMP280;25639;53.634;9.880;2022-07-29T14:25:30;158512.28;;;24.72
39959;BMP280;25639;53.634;9.880;2022-07-29T14:27:56;158498.16;;;24.67
39959;BMP280;25639;53.634;9.880;2022-07-29T14:30:21;158447.97;;;24.47